sensor_id;sensor_type;location;lat;lon;timestamp;temperature;humidity
4755;DHT22;2391;47.212;7.542;2024-01-15T00:02:23;3.70;99.90
4755;DHT22;2391;47.212;7.542;2024-01-15T00:04:49;3.60;99.90
4755;DHT22;2391;47.212;7.542;2024-01-15T00:07:15;3.60;99.90
4755;DHT22;2391;47.212;7.542;2024-01-15T00:09:41;3.70;99.90
4755;DHT22;2391;47.212;7.542;2024-01-15T00:12:07;3.70;99.90
4755;DHT22;2391;47.212;7.542;2024-01-15T00:14:32;3.50;99.90
4755;DHT22;2391;47.212;7.542;2024-01-15T00:16:58;3.50;99.90
4755;DHT22;2391;47.212;7.542;2024-01-15T00:19:24;3.60;99.90
4755;DHT22;2391;47.212;7.542;2024-01-15T00:21:50;3.70;99.90
4755;DHT22;2391;47.212;7.542;2024-01-15T00:24:16;3.90;99.90
4755;DHT22;2391;47.212;7.542;2024-01-15T00:26:42;4.00;99.90
4755;DHT22;2391;47.212;7.542;2024-01-15T00:29:08;4.00;99.90
4755;DHT22;2391;47.212;7.542;2024-01-15T00:31:34;4.00;99.90
4755;DHT22;2391;47.212;7.542;2024-01-15T00:34:00;4.10;99.90
4755;DHT22;2391;47.212;7.542;2024-01-15T00:36:26;4.20;99.90
4755;DHT22;2391;47.212;7.542;2024-01-15T00:38:53;4.20;99.90
4755;DHT22;2391;47.212;7.542;2024-01-15T00:41:19;4.20;99.90
4755;DHT22;2391;47.212;7.542;2024-01-15T00:43:45;4.20;99.90
4755;DHT22;2391;47.212;7.542;2024-01-15T00:46:11;4.30;99.90
4755;DHT22;2391;47.212;7.542;2024-01-15T00:48:37;4.30;99.90
4755;DHT22;2391;47.212;7.542;2024-01-15T00:51:05;4.30;99.90
4755;DHT22;2391;47.212;7.542;2024-01-15T00:53:31;4.20;99.90
4755;DHT22;2391;47.212;7.542;2024-01-15T00:55:57;4.20;99.90
4755;DHT22;2391;47.212;7.542;2024-01-15T00:58:23;4.10;99.90
4755;DHT22;2391;47.212;7.542;2024-01-15T01:00:48;4.10;99.90
4755;DHT22;2391;47.212;7.542;2024-01-15T01:03:14;4.10;99.90
4755;DHT22;2391;47.212;7.542;2024-01-15T01:05:40;4.20;99.90
4755;DHT22;2391;47.212;7.542;2024-01-15T01:08:06;4.30;99.90
4755;DHT22;2391;47.212;7.542;2024-01-15T01:10:31;4.40;99.70
4755;DHT22;2391;47.212;7.542;2024-01-15T01:12:57;4.30;99.60
4755;DHT22;2391;47.212;7.542;2024-01-15T01:15:23;4.30;99.70
4755;DHT22;2391;47.212;7.542;2024-01-15T01:17:50;4.40;99.70
4755;DHT22;2391;47.212;7.542;2024-01-15T01:20:16;4.40;99.60
4755;DHT22;2391;47.212;7.542;2024-01-15T01:22:41;4.40;99.50
4755;DHT22;2391;47.212;7.542;2024-01-15T01:25:07;4.30;99.50
4755;DHT22;2391;47.212;7.542;2024-01-15T01:27:33;4.20;99.60
4755;DHT22;2391;47.212;7.542;2024-01-15T01:29:59;4.10;99.80
4755;DHT22;2391;47.212;7.542;2024-01-15T01:32:25;4.00;99.90
4755;DHT22;2391;47.212;7.542;2024-01-15T01:34:50;4.00;99.90
4755;DHT22;2391;47.212;7.542;2024-01-15T01:37:16;4.00;99.90
4755;DHT22;2391;47.212;7.542;2024-01-15T01:39:43;3.90;99.90
4755;DHT22;2391;47.212;7.542;2024-01-15T01:42:09;3.80;99.90
4755;DHT22;2391;47.212;7.542;2024-01-15T01:44:35;3.70;99.90
4755;DHT22;2391;47.212;7.542;2024-01-15T01:47:01;3.60;99.90
4755;DHT22;2391;47.212;7.542;2024-01-15T01:49:27;3.50;99.90
4755;DHT22;2391;47.212;7.542;2024-01-15T01:52:00;3.50;99.90
4755;DHT22;2391;47.212;7.542;2024-01-15T01:54:24;3.50;99.90
4755;DHT22;2391;47.212;7.542;2024-01-15T01:56:51;3.60;99.90
4755;DHT22;2391;47.212;7.542;2024-01-15T01:59:17;3.60;99.90
4755;DHT22;2391;47.212;7.542;2024-01-15T02:01:44;3.70;99.90
4755;DHT22;2391;47.212;7.542;2024-01-15T02:04:11;3.70;99.90
4755;DHT22;2391;47.212;7.542;2024-01-15T02:06:37;3.80;99.90
4755;DHT22;2391;47.212;7.542;2024-01-15T02:09:03;3.90;99.90
4755;DHT22;2391;47.212;7.542;2024-01-15T02:11:29;4.00;99.90
4755;DHT22;2391;47.212;7.542;2024-01-15T02:13:55;4.10;99.90
4755;DHT22;2391;47.212;7.542;2024-01-15T02:16:21;4.20;99.90
4755;DHT22;2391;47.212;7.542;2024-01-15T02:18:47;4.30;99.90
4755;DHT22;2391;47.212;7.542;2024-01-15T02:21:13;4.30;99.60
4755;DHT22;2391;47.212;7.542;2024-01-15T02:23:39;4.40;99.60
4755;DHT22;2391;47.212;7.542;2024-01-15T02:26:05;4.40;99.50
4755;DHT22;2391;47.212;7.542;2024-01-15T02:28:32;4.40;99.40
4755;DHT22;2391;47.212;7.542;2024-01-15T02:30:58;4.40;99.30
4755;DHT22;2391;47.212;7.542;2024-01-15T02:33:25;4.30;99.30
4755;DHT22;2391;47.212;7.542;2024-01-15T02:35:50;4.20;99.40
4755;DHT22;2391;47.212;7.542;2024-01-15T02:38:16;4.30;99.50
4755;DHT22;2391;47.212;7.542;2024-01-15T02:40:44;4.40;99.30
4755;DHT22;2391;47.212;7.542;2024-01-15T02:43:11;4.40;99.10
4755;DHT22;2391;47.212;7.542;2024-01-15T02:45:37;4.40;99.10
4755;DHT22;2391;47.212;7.542;2024-01-15T02:48:03;4.40;99.10
4755;DHT22;2391;47.212;7.542;2024-01-15T02:50:29;4.50;99.00
4755;DHT22;2391;47.212;7.542;2024-01-15T02:52:55;4.50;98.80
4755;DHT22;2391;47.212;7.542;2024-01-15T02:55:21;4.60;98.70
4755;DHT22;2391;47.212;7.542;2024-01-15T02:57:46;4.60;98.60
4755;DHT22;2391;47.212;7.542;2024-01-15T03:00:13;4.60;98.50
4755;DHT22;2391;47.212;7.542;2024-01-15T03:02:39;4.70;98.50
4755;DHT22;2391;47.212;7.542;2024-01-15T03:05:09;4.70;98.40
4755;DHT22;2391;47.212;7.542;2024-01-15T03:07:35;4.80;98.30
4755;DHT22;2391;47.212;7.542;2024-01-15T03:10:01;4.80;98.30
4755;DHT22;2391;47.212;7.542;2024-01-15T03:12:27;4.80;98.30
4755;DHT22;2391;47.212;7.542;2024-01-15T03:14:53;4.80;98.30
4755;DHT22;2391;47.212;7.542;2024-01-15T03:17:19;4.80;98.40
4755;DHT22;2391;47.212;7.542;2024-01-15T03:19:45;4.80;98.30
4755;DHT22;2391;47.212;7.542;2024-01-15T03:22:10;4.80;98.30
4755;DHT22;2391;47.212;7.542;2024-01-15T03:24:36;4.70;98.10
4755;DHT22;2391;47.212;7.542;2024-01-15T03:27:02;4.70;98.20
4755;DHT22;2391;47.212;7.542;2024-01-15T03:29:28;4.60;98.20
4755;DHT22;2391;47.212;7.542;2024-01-15T03:31:54;4.60;98.20
4755;DHT22;2391;47.212;7.542;2024-01-15T03:34:20;4.70;98.30
4755;DHT22;2391;47.212;7.542;2024-01-15T03:36:45;4.70;98.30
4755;DHT22;2391;47.212;7.542;2024-01-15T03:39:11;4.70;98.30
4755;DHT22;2391;47.212;7.542;2024-01-15T03:41:37;4.70;98.20
4755;DHT22;2391;47.212;7.542;2024-01-15T03:44:03;4.70;98.20
4755;DHT22;2391;47.212;7.542;2024-01-15T03:46:29;4.80;98.20
4755;DHT22;2391;47.212;7.542;2024-01-15T03:48:54;4.80;98.20
4755;DHT22;2391;47.212;7.542;2024-01-15T03:51:20;4.70;98.20
4755;DHT22;2391;47.212;7.542;2024-01-15T03:53:46;4.70;98.20
4755;DHT22;2391;47.212;7.542;2024-01-15T03:56:12;4.70;98.20
4755;DHT22;2391;47.212;7.542;2024-01-15T03:58:38;4.70;98.10
4755;DHT22;2391;47.212;7.542;2024-01-15T04:01:10;4.60;98.30
4755;DHT22;2391;47.212;7.542;2024-01-15T04:03:33;4.50;98.40
4755;DHT22;2391;47.212;7.542;2024-01-15T04:05:59;4.60;98.40
4755;DHT22;2391;47.212;7.542;2024-01-15T04:08:25;4.60;98.30
4755;DHT22;2391;47.212;7.542;2024-01-15T04:10:50;4.70;98.20
4755;DHT22;2391;47.212;7.542;2024-01-15T04:13:16;4.70;98.20
4755;DHT22;2391;47.212;7.542;2024-01-15T04:15:42;4.70;98.20
4755;DHT22;2391;47.212;7.542;2024-01-15T04:18:08;4.70;98.20
4755;DHT22;2391;47.212;7.542;2024-01-15T04:20:34;4.70;98.20
4755;DHT22;2391;47.212;7.542;2024-01-15T04:22:59;4.70;98.30
4755;DHT22;2391;47.212;7.542;2024-01-15T04:25:25;4.70;98.30
4755;DHT22;2391;47.212;7.542;2024-01-15T04:27:51;4.70;98.20
4755;DHT22;2391;47.212;7.542;2024-01-15T04:30:16;4.70;98.40
4755;DHT22;2391;47.212;7.542;2024-01-15T04:32:42;4.70;98.20
4755;DHT22;2391;47.212;7.542;2024-01-15T04:35:08;4.70;98.40
4755;DHT22;2391;47.212;7.542;2024-01-15T04:37:34;4.70;98.40
4755;DHT22;2391;47.212;7.542;2024-01-15T04:40:00;4.70;98.00
4755;DHT22;2391;47.212;7.542;2024-01-15T04:42:25;4.80;98.20
4755;DHT22;2391;47.212;7.542;2024-01-15T04:44:51;4.80;98.10
4755;DHT22;2391;47.212;7.542;2024-01-15T04:47:17;4.70;98.10
4755;DHT22;2391;47.212;7.542;2024-01-15T04:49:43;4.70;98.10
4755;DHT22;2391;47.212;7.542;2024-01-15T04:52:09;4.70;98.10
4755;DHT22;2391;47.212;7.542;2024-01-15T04:54:38;4.70;98.10
4755;DHT22;2391;47.212;7.542;2024-01-15T04:57:04;4.70;98.00
4755;DHT22;2391;47.212;7.542;2024-01-15T04:59:29;4.60;98.00
4755;DHT22;2391;47.212;7.542;2024-01-15T05:01:55;4.50;97.90
4755;DHT22;2391;47.212;7.542;2024-01-15T05:04:21;4.50;98.10
4755;DHT22;2391;47.212;7.542;2024-01-15T05:06:47;4.40;98.00
4755;DHT22;2391;47.212;7.542;2024-01-15T05:09:12;4.40;98.10
4755;DHT22;2391;47.212;7.542;2024-01-15T05:11:41;4.40;98.10
4755;DHT22;2391;47.212;7.542;2024-01-15T05:14:07;4.50;98.20
4755;DHT22;2391;47.212;7.542;2024-01-15T05:16:32;4.50;98.10
4755;DHT22;2391;47.212;7.542;2024-01-15T05:18:59;4.60;98.20
4755;DHT22;2391;47.212;7.542;2024-01-15T05:21:25;4.60;98.10
4755;DHT22;2391;47.212;7.542;2024-01-15T05:23:50;4.60;98.00
4755;DHT22;2391;47.212;7.542;2024-01-15T05:26:16;4.60;98.00
4755;DHT22;2391;47.212;7.542;2024-01-15T05:28:42;4.70;98.10
4755;DHT22;2391;47.212;7.542;2024-01-15T05:31:10;4.70;98.00
4755;DHT22;2391;47.212;7.542;2024-01-15T05:33:37;4.70;98.00
4755;DHT22;2391;47.212;7.542;2024-01-15T05:36:03;4.70;98.00
4755;DHT22;2391;47.212;7.542;2024-01-15T05:38:29;4.80;98.00
4755;DHT22;2391;47.212;7.542;2024-01-15T05:40:55;4.80;98.00
4755;DHT22;2391;47.212;7.542;2024-01-15T05:43:20;4.70;97.90
4755;DHT22;2391;47.212;7.542;2024-01-15T05:45:46;4.70;97.90
4755;DHT22;2391;47.212;7.542;2024-01-15T05:48:12;4.70;98.00
4755;DHT22;2391;47.212;7.542;2024-01-15T05:50:38;4.70;98.10
4755;DHT22;2391;47.212;7.542;2024-01-15T05:53:04;4.70;97.90
4755;DHT22;2391;47.212;7.542;2024-01-15T05:55:30;4.60;98.30
4755;DHT22;2391;47.212;7.542;2024-01-15T05:57:56;4.60;98.10
4755;DHT22;2391;47.212;7.542;2024-01-15T06:00:22;4.60;98.00
4755;DHT22;2391;47.212;7.542;2024-01-15T06:02:47;4.70;98.00
4755;DHT22;2391;47.212;7.542;2024-01-15T06:05:13;4.60;98.00
4755;DHT22;2391;47.212;7.542;2024-01-15T06:07:39;4.70;98.00
4755;DHT22;2391;47.212;7.542;2024-01-15T06:10:06;4.70;98.10
4755;DHT22;2391;47.212;7.542;2024-01-15T06:12:32;4.70;97.90
4755;DHT22;2391;47.212;7.542;2024-01-15T06:14:59;4.60;98.00
4755;DHT22;2391;47.212;7.542;2024-01-15T06:17:25;4.40;98.10
4755;DHT22;2391;47.212;7.542;2024-01-15T06:19:50;4.20;98.30
4755;DHT22;2391;47.212;7.542;2024-01-15T06:22:17;4.10;98.50
4755;DHT22;2391;47.212;7.542;2024-01-15T06:24:43;4.10;98.70
4755;DHT22;2391;47.212;7.542;2024-01-15T06:27:08;4.10;98.80
4755;DHT22;2391;47.212;7.542;2024-01-15T06:29:37;4.10;99.00
4755;DHT22;2391;47.212;7.542;2024-01-15T06:32:04;4.20;99.00
4755;DHT22;2391;47.212;7.542;2024-01-15T06:34:29;4.10;98.90
4755;DHT22;2391;47.212;7.542;2024-01-15T06:36:55;4.20;98.90
4755;DHT22;2391;47.212;7.542;2024-01-15T06:39:21;4.30;98.90
4755;DHT22;2391;47.212;7.542;2024-01-15T06:41:47;4.30;98.90
4755;DHT22;2391;47.212;7.542;2024-01-15T06:44:13;4.40;98.80
4755;DHT22;2391;47.212;7.542;2024-01-15T06:46:42;4.50;98.70
4755;DHT22;2391;47.212;7.542;2024-01-15T06:49:09;4.50;98.60
4755;DHT22;2391;47.212;7.542;2024-01-15T06:51:35;4.60;98.60
4755;DHT22;2391;47.212;7.542;2024-01-15T06:54:01;4.60;98.60
4755;DHT22;2391;47.212;7.542;2024-01-15T06:56:27;4.60;98.50
4755;DHT22;2391;47.212;7.542;2024-01-15T06:58:53;4.60;98.40
4755;DHT22;2391;47.212;7.542;2024-01-15T07:01:19;4.50;98.20
4755;DHT22;2391;47.212;7.542;2024-01-15T07:03:45;4.40;98.20
4755;DHT22;2391;47.212;7.542;2024-01-15T07:06:11;4.30;98.20
4755;DHT22;2391;47.212;7.542;2024-01-15T07:08:39;4.10;97.80
4755;DHT22;2391;47.212;7.542;2024-01-15T07:11:05;4.00;97.30
4755;DHT22;2391;47.212;7.542;2024-01-15T07:13:31;3.90;97.40
4755;DHT22;2391;47.212;7.542;2024-01-15T07:15:57;3.90;97.10
4755;DHT22;2391;47.212;7.542;2024-01-15T07:18:23;3.90;96.90
4755;DHT22;2391;47.212;7.542;2024-01-15T07:20:49;3.90;97.20
4755;DHT22;2391;47.212;7.542;2024-01-15T07:23:15;3.90;97.20
4755;DHT22;2391;47.212;7.542;2024-01-15T07:25:41;3.90;97.00
4755;DHT22;2391;47.212;7.542;2024-01-15T07:28:06;3.90;97.00
4755;DHT22;2391;47.212;7.542;2024-01-15T07:30:32;4.00;96.90
4755;DHT22;2391;47.212;7.542;2024-01-15T07:32:58;4.10;96.90
4755;DHT22;2391;47.212;7.542;2024-01-15T07:35:24;4.20;96.70
4755;DHT22;2391;47.212;7.542;2024-01-15T07:37:50;4.20;96.50
4755;DHT22;2391;47.212;7.542;2024-01-15T07:40:16;4.20;96.20
4755;DHT22;2391;47.212;7.542;2024-01-15T07:42:42;4.10;96.00
4755;DHT22;2391;47.212;7.542;2024-01-15T07:45:10;4.10;96.10
4755;DHT22;2391;47.212;7.542;2024-01-15T07:47:36;4.20;96.00
4755;DHT22;2391;47.212;7.542;2024-01-15T07:50:03;4.10;95.50
4755;DHT22;2391;47.212;7.542;2024-01-15T07:52:30;4.00;95.70
4755;DHT22;2391;47.212;7.542;2024-01-15T07:54:56;4.10;95.60
4755;DHT22;2391;47.212;7.542;2024-01-15T07:57:22;4.10;95.30
4755;DHT22;2391;47.212;7.542;2024-01-15T07:59:48;4.10;95.00
4755;DHT22;2391;47.212;7.542;2024-01-15T08:02:15;4.00;94.70
4755;DHT22;2391;47.212;7.542;2024-01-15T08:04:41;3.90;94.50
4755;DHT22;2391;47.212;7.542;2024-01-15T08:07:08;3.80;94.60
4755;DHT22;2391;47.212;7.542;2024-01-15T08:09:34;3.80;94.90
4755;DHT22;2391;47.212;7.542;2024-01-15T08:12:00;3.70;94.90
4755;DHT22;2391;47.212;7.542;2024-01-15T08:14:26;3.70;94.90
4755;DHT22;2391;47.212;7.542;2024-01-15T08:16:52;3.60;95.00
4755;DHT22;2391;47.212;7.542;2024-01-15T08:19:18;3.60;95.20
4755;DHT22;2391;47.212;7.542;2024-01-15T08:21:45;3.60;95.20
4755;DHT22;2391;47.212;7.542;2024-01-15T08:24:11;3.60;95.10
4755;DHT22;2391;47.212;7.542;2024-01-15T08:26:37;3.70;95.10
4755;DHT22;2391;47.212;7.542;2024-01-15T08:29:03;3.70;95.10
4755;DHT22;2391;47.212;7.542;2024-01-15T08:31:29;3.70;95.00
4755;DHT22;2391;47.212;7.542;2024-01-15T08:33:54;3.70;94.80
4755;DHT22;2391;47.212;7.542;2024-01-15T08:36:21;3.80;94.90
4755;DHT22;2391;47.212;7.542;2024-01-15T08:38:47;3.90;94.90
4755;DHT22;2391;47.212;7.542;2024-01-15T08:41:13;4.00;94.70
4755;DHT22;2391;47.212;7.542;2024-01-15T08:43:39;4.00;94.50
4755;DHT22;2391;47.212;7.542;2024-01-15T08:46:05;4.00;94.50
4755;DHT22;2391;47.212;7.542;2024-01-15T08:48:31;4.00;94.40
4755;DHT22;2391;47.212;7.542;2024-01-15T08:50:57;4.00;94.40
4755;DHT22;2391;47.212;7.542;2024-01-15T08:53:23;4.10;94.40
4755;DHT22;2391;47.212;7.542;2024-01-15T08:55:49;4.10;94.30
4755;DHT22;2391;47.212;7.542;2024-01-15T08:58:15;4.10;94.30
4755;DHT22;2391;47.212;7.542;2024-01-15T09:00:41;4.10;94.30
4755;DHT22;2391;47.212;7.542;2024-01-15T09:03:07;4.10;94.30
4755;DHT22;2391;47.212;7.542;2024-01-15T09:05:36;4.10;94.20
4755;DHT22;2391;47.212;7.542;2024-01-15T09:08:03;4.20;94.20
4755;DHT22;2391;47.212;7.542;2024-01-15T09:10:29;4.20;94.20
4755;DHT22;2391;47.212;7.542;2024-01-15T09:12:55;4.30;94.00
4755;DHT22;2391;47.212;7.542;2024-01-15T09:15:22;4.40;93.90
4755;DHT22;2391;47.212;7.542;2024-01-15T09:17:47;4.40;93.90
4755;DHT22;2391;47.212;7.542;2024-01-15T09:20:13;4.30;93.30
4755;DHT22;2391;47.212;7.542;2024-01-15T09:22:39;4.20;93.20
4755;DHT22;2391;47.212;7.542;2024-01-15T09:25:08;4.20;93.30
4755;DHT22;2391;47.212;7.542;2024-01-15T09:27:37;4.20;93.20
4755;DHT22;2391;47.212;7.542;2024-01-15T09:30:04;4.20;93.10
4755;DHT22;2391;47.212;7.542;2024-01-15T09:32:30;4.30;93.30
4755;DHT22;2391;47.212;7.542;2024-01-15T09:34:58;4.30;92.90
4755;DHT22;2391;47.212;7.542;2024-01-15T09:37:26;4.40;92.90
4755;DHT22;2391;47.212;7.542;2024-01-15T09:39:52;4.40;92.90
4755;DHT22;2391;47.212;7.542;2024-01-15T09:42:18;4.60;92.70
4755;DHT22;2391;47.212;7.542;2024-01-15T09:44:45;4.70;92.40
4755;DHT22;2391;47.212;7.542;2024-01-15T09:47:12;4.70;92.30
4755;DHT22;2391;47.212;7.542;2024-01-15T09:49:38;4.70;92.20
4755;DHT22;2391;47.212;7.542;2024-01-15T09:52:06;4.70;92.00
4755;DHT22;2391;47.212;7.542;2024-01-15T09:54:33;4.70;92.20
4755;DHT22;2391;47.212;7.542;2024-01-15T09:57:00;4.80;92.50
4755;DHT22;2391;47.212;7.542;2024-01-15T09:59:26;4.80;92.30
4755;DHT22;2391;47.212;7.542;2024-01-15T10:01:55;4.90;92.00
4755;DHT22;2391;47.212;7.542;2024-01-15T10:04:22;5.00;91.90
4755;DHT22;2391;47.212;7.542;2024-01-15T10:06:51;5.10;91.60
4755;DHT22;2391;47.212;7.542;2024-01-15T10:09:18;5.20;90.90
4755;DHT22;2391;47.212;7.542;2024-01-15T10:11:44;5.30;90.70
4755;DHT22;2391;47.212;7.542;2024-01-15T10:14:11;5.20;90.70
4755;DHT22;2391;47.212;7.542;2024-01-15T10:16:41;5.10;90.70
4755;DHT22;2391;47.212;7.542;2024-01-15T10:19:08;5.10;90.90
4755;DHT22;2391;47.212;7.542;2024-01-15T10:21:35;5.10;91.00
4755;DHT22;2391;47.212;7.542;2024-01-15T10:24:03;5.10;90.90
4755;DHT22;2391;47.212;7.542;2024-01-15T10:26:30;5.00;91.00
4755;DHT22;2391;47.212;7.542;2024-01-15T10:28:56;4.80;91.20
4755;DHT22;2391;47.212;7.542;2024-01-15T10:31:22;4.70;91.20
4755;DHT22;2391;47.212;7.542;2024-01-15T10:33:48;4.70;91.40
4755;DHT22;2391;47.212;7.542;2024-01-15T10:36:15;4.70;91.60
4755;DHT22;2391;47.212;7.542;2024-01-15T10:38:43;4.70;91.50
4755;DHT22;2391;47.212;7.542;2024-01-15T10:41:09;4.80;91.90
4755;DHT22;2391;47.212;7.542;2024-01-15T10:43:35;4.90;91.80
4755;DHT22;2391;47.212;7.542;2024-01-15T10:46:01;5.00;91.50
4755;DHT22;2391;47.212;7.542;2024-01-15T10:48:28;5.20;91.50
4755;DHT22;2391;47.212;7.542;2024-01-15T10:50:57;5.30;91.20
4755;DHT22;2391;47.212;7.542;2024-01-15T10:53:26;5.40;91.10
4755;DHT22;2391;47.212;7.542;2024-01-15T10:55:53;5.40;90.70
4755;DHT22;2391;47.212;7.542;2024-01-15T10:58:21;5.40;90.80
4755;DHT22;2391;47.212;7.542;2024-01-15T11:00:49;5.40;90.80
4755;DHT22;2391;47.212;7.542;2024-01-15T11:03:15;5.40;90.80
4755;DHT22;2391;47.212;7.542;2024-01-15T11:05:43;5.40;90.80
4755;DHT22;2391;47.212;7.542;2024-01-15T11:08:09;5.30;90.60
4755;DHT22;2391;47.212;7.542;2024-01-15T11:10:46;5.30;90.80
4755;DHT22;2391;47.212;7.542;2024-01-15T11:18:48;5.30;91.50
4755;DHT22;2391;47.212;7.542;2024-01-15T11:23:48;5.40;91.80
4755;DHT22;2391;47.212;7.542;2024-01-15T11:29:10;5.50;91.90
4755;DHT22;2391;47.212;7.542;2024-01-15T11:34:08;5.50;91.80
4755;DHT22;2391;47.212;7.542;2024-01-15T11:42:01;5.60;90.80
4755;DHT22;2391;47.212;7.542;2024-01-15T11:44:29;5.50;91.10
4755;DHT22;2391;47.212;7.542;2024-01-15T11:47:07;5.60;91.10
4755;DHT22;2391;47.212;7.542;2024-01-15T11:52:17;5.60;88.30
4755;DHT22;2391;47.212;7.542;2024-01-15T11:55:01;5.50;86.50
4755;DHT22;2391;47.212;7.542;2024-01-15T11:57:45;5.40;87.50
4755;DHT22;2391;47.212;7.542;2024-01-15T12:00:10;5.50;87.90
4755;DHT22;2391;47.212;7.542;2024-01-15T12:02:41;5.50;86.70
4755;DHT22;2391;47.212;7.542;2024-01-15T12:05:08;5.60;85.70
4755;DHT22;2391;47.212;7.542;2024-01-15T12:07:34;5.60;86.20
4755;DHT22;2391;47.212;7.542;2024-01-15T12:10:01;5.60;86.10
4755;DHT22;2391;47.212;7.542;2024-01-15T12:15:03;5.60;87.00
4755;DHT22;2391;47.212;7.542;2024-01-15T12:17:29;5.60;86.30
4755;DHT22;2391;47.212;7.542;2024-01-15T12:19:58;5.70;85.90
4755;DHT22;2391;47.212;7.542;2024-01-15T12:22:24;5.80;85.80
4755;DHT22;2391;47.212;7.542;2024-01-15T12:24:50;5.90;83.20
4755;DHT22;2391;47.212;7.542;2024-01-15T12:27:16;5.90;82.30
4755;DHT22;2391;47.212;7.542;2024-01-15T12:29:43;6.00;81.70
4755;DHT22;2391;47.212;7.542;2024-01-15T12:32:08;6.00;80.60
4755;DHT22;2391;47.212;7.542;2024-01-15T12:34:34;5.90;80.00
4755;DHT22;2391;47.212;7.542;2024-01-15T12:37:00;5.90;80.20
4755;DHT22;2391;47.212;7.542;2024-01-15T12:39:26;5.80;80.40
4755;DHT22;2391;47.212;7.542;2024-01-15T12:41:52;5.80;78.30
4755;DHT22;2391;47.212;7.542;2024-01-15T12:44:18;5.80;78.60
4755;DHT22;2391;47.212;7.542;2024-01-15T12:46:44;5.80;80.00
4755;DHT22;2391;47.212;7.542;2024-01-15T12:49:13;5.80;80.30
4755;DHT22;2391;47.212;7.542;2024-01-15T12:51:38;5.80;80.60
4755;DHT22;2391;47.212;7.542;2024-01-15T12:54:04;5.80;81.00
4755;DHT22;2391;47.212;7.542;2024-01-15T12:56:30;5.90;79.50
4755;DHT22;2391;47.212;7.542;2024-01-15T12:58:56;5.90;79.30
4755;DHT22;2391;47.212;7.542;2024-01-15T13:01:22;5.90;78.60
4755;DHT22;2391;47.212;7.542;2024-01-15T13:03:48;5.90;77.20
4755;DHT22;2391;47.212;7.542;2024-01-15T13:06:13;5.80;77.00
4755;DHT22;2391;47.212;7.542;2024-01-15T13:08:39;5.80;77.20
4755;DHT22;2391;47.212;7.542;2024-01-15T13:11:05;5.80;76.90
4755;DHT22;2391;47.212;7.542;2024-01-15T13:13:31;5.70;76.60
4755;DHT22;2391;47.212;7.542;2024-01-15T13:15:59;5.70;76.30
4755;DHT22;2391;47.212;7.542;2024-01-15T13:18:25;5.60;76.60
4755;DHT22;2391;47.212;7.542;2024-01-15T13:20:51;5.60;75.90
4755;DHT22;2391;47.212;7.542;2024-01-15T13:39:23;6.40;77.70
4755;DHT22;2391;47.212;7.542;2024-01-15T13:41:49;6.60;75.70
4755;DHT22;2391;47.212;7.542;2024-01-15T13:44:15;6.70;75.30
4755;DHT22;2391;47.212;7.542;2024-01-15T13:46:41;6.60;74.80
4755;DHT22;2391;47.212;7.542;2024-01-15T13:49:07;6.50;73.80
4755;DHT22;2391;47.212;7.542;2024-01-15T13:51:36;6.30;73.70
4755;DHT22;2391;47.212;7.542;2024-01-15T13:54:02;6.10;74.70
4755;DHT22;2391;47.212;7.542;2024-01-15T13:56:30;5.90;75.20
4755;DHT22;2391;47.212;7.542;2024-01-15T13:58:58;5.80;75.50
4755;DHT22;2391;47.212;7.542;2024-01-15T14:01:24;5.60;75.10
4755;DHT22;2391;47.212;7.542;2024-01-15T14:03:50;5.50;75.30
4755;DHT22;2391;47.212;7.542;2024-01-15T14:06:16;5.40;76.50
4755;DHT22;2391;47.212;7.542;2024-01-15T14:08:42;5.30;76.30
4755;DHT22;2391;47.212;7.542;2024-01-15T14:11:08;5.20;76.30
4755;DHT22;2391;47.212;7.542;2024-01-15T14:13:35;5.20;76.40
4755;DHT22;2391;47.212;7.542;2024-01-15T14:16:01;5.10;75.70
4755;DHT22;2391;47.212;7.542;2024-01-15T14:18:27;5.10;76.40
4755;DHT22;2391;47.212;7.542;2024-01-15T14:20:56;5.10;76.70
4755;DHT22;2391;47.212;7.542;2024-01-15T14:23:21;5.10;76.20
4755;DHT22;2391;47.212;7.542;2024-01-15T14:25:47;5.10;76.40
4755;DHT22;2391;47.212;7.542;2024-01-15T14:28:13;5.10;77.10
4755;DHT22;2391;47.212;7.542;2024-01-15T14:30:42;5.10;77.00
4755;DHT22;2391;47.212;7.542;2024-01-15T14:33:07;5.10;76.30
4755;DHT22;2391;47.212;7.542;2024-01-15T14:35:33;5.00;76.30
4755;DHT22;2391;47.212;7.542;2024-01-15T14:37:59;5.00;77.10
4755;DHT22;2391;47.212;7.542;2024-01-15T14:40:26;5.00;76.20
4755;DHT22;2391;47.212;7.542;2024-01-15T14:42:52;5.00;75.90
4755;DHT22;2391;47.212;7.542;2024-01-15T14:45:18;5.00;76.10
4755;DHT22;2391;47.212;7.542;2024-01-15T14:47:44;5.00;76.80
4755;DHT22;2391;47.212;7.542;2024-01-15T14:50:10;5.10;76.00
4755;DHT22;2391;47.212;7.542;2024-01-15T14:52:38;5.10;75.70
4755;DHT22;2391;47.212;7.542;2024-01-15T14:55:06;5.10;76.00
4755;DHT22;2391;47.212;7.542;2024-01-15T14:57:32;5.10;76.10
4755;DHT22;2391;47.212;7.542;2024-01-15T14:59:58;5.20;75.70
4755;DHT22;2391;47.212;7.542;2024-01-15T15:02:24;5.20;76.10
4755;DHT22;2391;47.212;7.542;2024-01-15T15:04:51;5.30;76.40
4755;DHT22;2391;47.212;7.542;2024-01-15T15:07:17;5.30;76.20
4755;DHT22;2391;47.212;7.542;2024-01-15T15:09:43;5.30;76.20
4755;DHT22;2391;47.212;7.542;2024-01-15T15:12:09;5.20;77.00
4755;DHT22;2391;47.212;7.542;2024-01-15T15:14:35;5.20;76.50
4755;DHT22;2391;47.212;7.542;2024-01-15T15:17:05;5.20;77.20
4755;DHT22;2391;47.212;7.542;2024-01-15T15:19:32;5.20;77.40
4755;DHT22;2391;47.212;7.542;2024-01-15T15:21:58;5.30;77.20
4755;DHT22;2391;47.212;7.542;2024-01-15T15:24:25;5.40;77.80
4755;DHT22;2391;47.212;7.542;2024-01-15T15:26:51;5.40;77.40
4755;DHT22;2391;47.212;7.542;2024-01-15T15:29:17;5.50;77.30
4755;DHT22;2391;47.212;7.542;2024-01-15T15:31:43;5.50;77.40
4755;DHT22;2391;47.212;7.542;2024-01-15T15:34:09;5.50;77.20
4755;DHT22;2391;47.212;7.542;2024-01-15T15:36:35;5.50;77.80
4755;DHT22;2391;47.212;7.542;2024-01-15T15:39:00;5.40;77.50
4755;DHT22;2391;47.212;7.542;2024-01-15T15:41:26;5.40;77.90
4755;DHT22;2391;47.212;7.542;2024-01-15T15:43:54;5.40;78.30
4755;DHT22;2391;47.212;7.542;2024-01-15T15:46:20;5.40;78.80
4755;DHT22;2391;47.212;7.542;2024-01-15T15:48:48;5.30;79.10
4755;DHT22;2391;47.212;7.542;2024-01-15T15:51:13;5.30;79.80
4755;DHT22;2391;47.212;7.542;2024-01-15T15:53:39;5.30;80.90
4755;DHT22;2391;47.212;7.542;2024-01-15T15:56:06;5.30;81.30
4755;DHT22;2391;47.212;7.542;2024-01-15T15:58:32;5.30;81.60
4755;DHT22;2391;47.212;7.542;2024-01-15T16:00:58;5.30;81.40
4755;DHT22;2391;47.212;7.542;2024-01-15T16:03:24;5.30;81.40
4755;DHT22;2391;47.212;7.542;2024-01-15T16:05:50;5.30;81.40
4755;DHT22;2391;47.212;7.542;2024-01-15T16:08:16;5.30;81.50
4755;DHT22;2391;47.212;7.542;2024-01-15T16:10:45;5.30;81.10
4755;DHT22;2391;47.212;7.542;2024-01-15T16:13:11;5.20;80.90
4755;DHT22;2391;47.212;7.542;2024-01-15T16:15:37;5.20;80.90
4755;DHT22;2391;47.212;7.542;2024-01-15T16:18:03;5.10;81.20
4755;DHT22;2391;47.212;7.542;2024-01-15T16:20:29;5.10;81.60
4755;DHT22;2391;47.212;7.542;2024-01-15T16:22:55;5.00;81.90
4755;DHT22;2391;47.212;7.542;2024-01-15T16:25:20;4.90;82.50
4755;DHT22;2391;47.212;7.542;2024-01-15T16:27:46;4.80;83.00
4755;DHT22;2391;47.212;7.542;2024-01-15T16:30:12;4.80;83.80
4755;DHT22;2391;47.212;7.542;2024-01-15T16:32:38;4.70;84.20
4755;DHT22;2391;47.212;7.542;2024-01-15T16:35:04;4.60;84.60
4755;DHT22;2391;47.212;7.542;2024-01-15T16:37:31;4.50;85.00
4755;DHT22;2391;47.212;7.542;2024-01-15T16:39:56;4.50;85.30
4755;DHT22;2391;47.212;7.542;2024-01-15T16:42:22;4.40;85.50
4755;DHT22;2391;47.212;7.542;2024-01-15T16:44:48;4.40;86.00
4755;DHT22;2391;47.212;7.542;2024-01-15T16:47:14;4.30;85.90
4755;DHT22;2391;47.212;7.542;2024-01-15T16:49:39;4.20;86.10
4755;DHT22;2391;47.212;7.542;2024-01-15T16:52:05;4.20;86.40